Sacramento / Mc Clellan, CA

3:26 AM PST on November 22, 2017 (GMT -0800)
McClellan

Weather History for KMCC - December, 2012

Change the Weather History Date:

Monday, December 3, 2012

  Actual Average (KMHR) Record (KMHR)
Temperature  
Mean Temperature 49 °F -  
Max Temperature 57 °F 53 °F 64 °F (2007)
Min Temperature 41 °F 38 °F 26 °F (2004)
Degree Days  
Heating Degree Days 16    
Moisture  
Dew Point 47 °F    
Average Humidity 88    
Maximum Humidity 100    
Minimum Humidity 72    
Precipitation  
Precipitation 0.00 in - - ()
Sea Level Pressure  
Sea Level Pressure 30.18 in    
Wind  
Wind Speed 2 mph ()    
Max Wind Speed 13 mph    
Max Gust Speed -    
Visibility 9.0 miles    
Events Rain    
Averages and records for this station are not official NWS values.
T = Trace of Precipitation, MM = Missing Value Source: Averaged Metar Reports

Daily Weather History Graph

Daily Weather History Graph

Search for Another Location

Airport or City:

Trip Planner

Search our weather history database for the weather conditions in past years. The results will help you decide how hot, cold, wet, or windy it might be!

Date:

Astronomy

Dec. 03, 2012 Rise Set
Actual Time 7:07 AM PST 4:44 PM PST
Civil Twilight 6:37 AM PST 5:13 PM PST
Nautical Twilight 6:04 AM PST 5:46 PM PST
Astronomical Twilight 5:32 AM PST 6:18 PM PST
Moon 9:34 PM PST (12/3) 10:34 AM PST (12/3)
Length of Visible Light 10h 36m
Length of Day
9h 37m
Waning Gibbous, 77% of the Moon is Illuminated
Dec 3
Waning Gibbous
Dec 6
Last Quarter
Dec 13
New
Dec 19
First Quarter
Dec 28
Full

Hourly Weather History & Observations

Time (PST) Temp. Windchill Dew Point Humidity Pressure Visibility Wind Dir Wind Speed Gust Speed Precip Events Conditions
12:10 AM 48.2 °F - 46.4 °F 93% 30.12 in 8.0 mi SE 3.5 mph - N/A   Clear
12:30 AM 46.4 °F 44.3 °F 46.4 °F 100% 30.11 in 9.0 mi SE 4.6 mph - N/A   Clear
12:50 AM 46.4 °F - 46.4 °F 100% 30.11 in 8.0 mi Calm Calm - N/A   Clear
1:10 AM 46.4 °F - 46.4 °F 100% 30.12 in 9.0 mi Calm Calm - N/A   Clear
1:30 AM 46.4 °F 45.2 °F 44.6 °F 93% 30.12 in 10.0 mi SE 3.5 mph - N/A   Clear
1:50 AM 46.4 °F 45.2 °F 44.6 °F 93% 30.12 in 10.0 mi ESE 3.5 mph - N/A   Clear
2:10 AM 46.4 °F 45.2 °F 44.6 °F 93% 30.14 in 10.0 mi SE 3.5 mph - N/A   Clear
2:30 AM 46.4 °F 45.2 °F 44.6 °F 93% 30.14 in 10.0 mi ESE 3.5 mph - N/A   Clear
2:50 AM 46.4 °F - 44.6 °F 93% 30.15 in 10.0 mi Calm Calm - N/A   Clear
3:10 AM 46.4 °F 45.2 °F 44.6 °F 93% 30.15 in 10.0 mi East 3.5 mph - N/A   Clear
3:30 AM 44.6 °F - 44.6 °F 100% 30.15 in 10.0 mi Calm Calm - N/A   Clear
3:50 AM 44.6 °F - 44.6 °F 100% 30.15 in 7.0 mi Calm Calm - N/A   Clear
4:10 AM 44.6 °F 43.1 °F 42.8 °F 93% 30.15 in 9.0 mi ENE 3.5 mph - N/A   Clear
4:30 AM 44.6 °F 42.2 °F 42.8 °F 93% 30.16 in 10.0 mi NNE 4.6 mph - N/A   Clear
4:50 AM 44.6 °F - 42.8 °F 93% 30.16 in 10.0 mi Calm Calm - N/A   Clear
5:10 AM 44.6 °F - 44.6 °F 100% 30.17 in 7.0 mi Calm Calm - N/A   Clear
5:30 AM 44.6 °F - 44.6 °F 100% 30.16 in 6.0 mi Calm Calm - N/A   Clear
5:50 AM 42.8 °F - 42.8 °F 100% 30.17 in 7.0 mi Calm Calm - N/A   Clear
6:10 AM 44.6 °F - 42.8 °F 93% 30.17 in 2.5 mi Calm Calm - N/A Rain Light Rain
6:30 AM 44.6 °F 43.1 °F 44.6 °F 100% 30.17 in 9.0 mi ESE 3.5 mph - N/A Rain Light Rain
6:50 AM 42.8 °F 41.1 °F 42.8 °F 100% 30.18 in 10.0 mi ESE 3.5 mph - N/A   Clear
7:10 AM 42.8 °F - 42.8 °F 100% 30.18 in 9.0 mi Calm Calm - N/A Rain Light Rain
7:30 AM 41.0 °F - 41.0 °F 100% 30.19 in 5.0 mi Calm Calm - N/A   Clear
7:50 AM 41.0 °F - 41.0 °F 100% 30.20 in 7.0 mi Calm Calm - N/A   Clear
8:10 AM 44.6 °F - 44.6 °F 100% 30.21 in 8.0 mi Calm Calm - N/A   Clear
8:30 AM 44.6 °F - 44.6 °F 100% 30.22 in 9.0 mi Calm Calm - N/A   Clear
8:50 AM 46.4 °F - 46.4 °F 100% 30.22 in 10.0 mi Calm Calm - N/A   Clear
9:10 AM 48.2 °F - 46.4 °F 93% 30.23 in 10.0 mi NNW 3.5 mph - N/A   Clear
9:30 AM 50.0 °F - 46.4 °F 87% 30.23 in 10.0 mi NW 3.5 mph - N/A   Clear
9:50 AM 50.0 °F - 48.2 °F 94% 30.23 in 9.0 mi NNW 5.8 mph - N/A   Clear
10:10 AM 50.0 °F - 48.2 °F 94% 30.23 in 9.0 mi NNW 5.8 mph - N/A   Mostly Cloudy
10:30 AM 50.0 °F - 48.2 °F 94% 30.23 in 5.0 mi NW 4.6 mph - N/A   Mostly Cloudy
10:50 AM 51.8 °F - 50.0 °F 94% 30.22 in 6.0 mi Calm Calm - N/A   Scattered Clouds
11:10 AM 53.6 °F - 50.0 °F 88% 30.22 in 7.0 mi West 4.6 mph - N/A   Partly Cloudy
11:30 AM 53.6 °F - 50.0 °F 88% 30.21 in 7.0 mi West 4.6 mph - N/A   Clear
11:50 AM 55.4 °F - 50.0 °F 82% 30.22 in 8.0 mi WNW 4.6 mph - N/A   Clear
12:10 PM 55.4 °F - 48.2 °F 77% 30.20 in 9.0 mi Calm Calm - N/A   Clear
12:30 PM 55.4 °F - 50.0 °F 82% 30.18 in 9.0 mi Calm Calm - N/A   Clear
12:50 PM 57.2 °F - 50.0 °F 77% 30.19 in 9.0 mi WNW 3.5 mph - N/A   Clear
1:10 PM 57.2 °F - 48.2 °F 72% 30.19 in 9.0 mi West 3.5 mph - N/A   Clear
1:30 PM 57.2 °F - 48.2 °F 72% 30.18 in 9.0 mi WNW 3.5 mph - N/A   Clear
1:50 PM 57.2 °F - 48.2 °F 72% 30.17 in 7.0 mi NW 3.5 mph - N/A   Clear
2:10 PM 57.2 °F - 48.2 °F 72% 30.18 in 10.0 mi WNW 4.6 mph - N/A   Clear
2:30 PM 57.2 °F - 50.0 °F 77% 30.18 in 9.0 mi West 5.8 mph - N/A   Clear
2:50 PM 57.2 °F - 50.0 °F 77% 30.18 in 10.0 mi NW 6.9 mph - N/A   Clear
3:10 PM 57.2 °F - 48.2 °F 72% 30.19 in 10.0 mi NW 6.9 mph - N/A   Clear
3:30 PM 57.2 °F - 50.0 °F 77% 30.19 in 10.0 mi NW 6.9 mph - N/A   Clear
3:50 PM 55.4 °F - 50.0 °F 82% 30.19 in 10.0 mi NW 5.8 mph - N/A   Clear
4:10 PM 55.4 °F - 50.0 °F 82% 30.19 in 10.0 mi NW 4.6 mph - N/A   Clear
4:30 PM 55.4 °F - 50.0 °F 82% 30.19 in 10.0 mi North 3.5 mph - N/A   Clear
4:50 PM 53.6 °F - 48.2 °F 82% 30.18 in 10.0 mi NNE 3.5 mph - N/A   Clear
5:10 PM 55.4 °F - 48.2 °F 77% 30.19 in 10.0 mi Calm Calm - N/A   Clear
5:30 PM 55.4 °F - 48.2 °F 77% 30.19 in 10.0 mi Calm Calm - N/A   Clear
5:50 PM 53.6 °F - 48.2 °F 82% 30.20 in 10.0 mi Calm Calm - N/A   Clear
6:10 PM 55.4 °F - 48.2 °F 77% 30.20 in 10.0 mi Calm Calm - N/A   Clear
6:30 PM 53.6 °F - 48.2 °F 82% 30.20 in 10.0 mi Calm Calm - N/A   Clear
6:50 PM 55.4 °F - 50.0 °F 82% 30.20 in 10.0 mi SSE 3.5 mph - N/A   Clear
7:10 PM 55.4 °F - 50.0 °F 82% 30.20 in 10.0 mi South 3.5 mph - N/A   Clear
7:30 PM 53.6 °F - 50.0 °F 88% 30.20 in 10.0 mi SSE 3.5 mph - N/A   Clear
7:50 PM 53.6 °F - 50.0 °F 88% 30.20 in 10.0 mi SSE 3.5 mph - N/A   Partly Cloudy
8:10 PM 53.6 °F - 50.0 °F 88% 30.20 in 10.0 mi SE 3.5 mph - N/A   Clear
8:30 PM 53.6 °F - 50.0 °F 88% 30.20 in 10.0 mi SE 3.5 mph - N/A   Clear
8:50 PM 53.6 °F - 50.0 °F 88% 30.18 in 10.0 mi ESE 5.8 mph - N/A   Partly Cloudy
9:10 PM 55.4 °F - 50.0 °F 82% 30.14 in 10.0 mi East 12.7 mph - N/A   Partly Cloudy
9:30 PM 55.4 °F - 50.0 °F 82% 30.19 in 10.0 mi Calm Calm - N/A   Clear
9:50 PM 53.6 °F - 50.0 °F 88% 30.20 in 10.0 mi SW 5.8 mph - N/A   Clear
10:10 PM 53.6 °F - 50.0 °F 88% 30.22 in 10.0 mi SW 3.5 mph - N/A   Partly Cloudy
10:30 PM 53.6 °F - 50.0 °F 88% 30.19 in 10.0 mi SE 4.6 mph - N/A   Partly Cloudy
10:50 PM 53.6 °F - 50.0 °F 88% 30.19 in 10.0 mi Calm Calm - N/A   Scattered Clouds
11:10 PM 53.6 °F - 50.0 °F 88% 30.19 in 10.0 mi Calm Calm - N/A   Mostly Cloudy
11:30 PM 53.6 °F - 50.0 °F 88% 30.17 in 9.0 mi ESE 6.9 mph - N/A   Mostly Cloudy
11:50 PM 53.6 °F - 50.0 °F 88% 30.18 in 10.0 mi ESE 4.6 mph - N/A   Scattered Clouds